Lacey, Iowa
Current Conditions -  °F | °C
As of 6:55 AM on Friday 24 Oct 2014 (Local Time) from KPEA Reporting Station
Moderate Fog Moderate Fog  
Wind Chill: 57°   Ceiling: 100
Heat Index: 57°   Visibility: 0.5mi
Dew Point: 56°   Wind: 6mph
Humidity: 99%   Direction: 180°S
Pressure: 30.02"   Gusts: NA
Location:  41.465°N, 92.7016°W
Report Text: KPEA 241155Z AUTO 18005KT 1/2SM FG OVC001 14/14 A3002 RMK AO2 70001 T01370136 10137 20110
Loading
Personal Weather Stations






























Interactive Weather Map
Tropical Storm Tracking
New forecast layout! Learn more

10-Day Weather Forecast

Advertisements
Track Severe Weather on mobile